This is the latest recevied weather packets stored in our database for station/object KI5NXU. If no packets are shown the sender has not sent any weather packets the latest 10 day(s).
| Time | Temp. | Humidity | Pressure | Rain* | Wind** | Luminosity | Snow |
|---|---|---|---|---|---|---|---|
| 1778166675 | 15.56° C | 77% | 1019 hPa | 0 mm | - | 487 W/m² | - |
| 1778166372 | 15° C | 76% | 1019.4 hPa | 0 mm | - | 350 W/m² | - |
| 1778166069 | 15.56° C | 74% | 1019.4 hPa | 0 mm | - | 630 W/m² | - |
| 1778165763 | 15° C | 77% | 1019.6 hPa | 0 mm | - | 291 W/m² | - |
| 1778165457 | 15° C | 77% | 1019.6 hPa | 0 mm | - | 536 W/m² | - |
| 1778165152 | 14.44° C | 79% | 1019.5 hPa | 0 mm | - | 471 W/m² | - |
| 1778164851 | 15° C | 77% | 1019.7 hPa | 0 mm | - | 504 W/m² | - |
| 1778164547 | 13.89° C | 81% | 1019.5 hPa | 0 mm | - | 421 W/m² | - |
| 1778164245 | 13.89° C | 82% | 1019.6 hPa | 0 mm | - | 355 W/m² | - |
| 1778163945 | 13.89° C | 82% | 1019.5 hPa | 0 mm | - | 395 W/m² | - |
| 1778163642 | 13.33° C | 84% | 1019.8 hPa | 0 mm | - | 346 W/m² | - |
| 1778163338 | 13.33° C | 84% | 1019.7 hPa | 0 mm | - | 292 W/m² | - |
| 1778163035 | 13.33° C | 85% | 1019.8 hPa | 0 mm | - | 147 W/m² | - |
| 1778162732 | 12.78° C | 86% | 1020 hPa | 0 mm | - | 150 W/m² | - |
| 1778162429 | 12.78° C | 86% | 1019.8 hPa | 0 mm | - | 186 W/m² | - |
| 1778162126 | 12.22° C | 87% | 1019.7 hPa | 0 mm | - | 163 W/m² | - |
| 1778161823 | 12.22° C | 87% | 1020 hPa | 0 mm | - | 142 W/m² | - |
| 1778161520 | 12.78° C | 86% | 1020 hPa | 0 mm | - | 168 W/m² | - |
| 1778161215 | 12.22° C | 87% | 1020 hPa | 0 mm | - | 146 W/m² | - |
| 1778160912 | 12.22° C | 87% | 1019.7 hPa | 0 mm | - | 156 W/m² | - |
| 1778160610 | 12.22° C | 88% | 1019.7 hPa | 0 mm | - | 134 W/m² | - |
| 1778160306 | 12.22° C | 89% | 1020 hPa | 0 mm | - | 149 W/m² | - |
| 1778160003 | 11.67° C | 90% | 1020 hPa | 0 mm | - | 186 W/m² | - |
| 1778159700 | 11.67° C | 90% | 1019.8 hPa | 0 mm | - | 112 W/m² | - |
| 1778159397 | 11.67° C | 91% | 1019.8 hPa | 0 mm | - | 85 W/m² | - |
* Rain latest hour (hover to see other rain measurements)
** Current wind speed in m/s (hover to see current wind gust speed)